AVA9762 SKBO-SKSM
Flight info
| Callsign | AVA9762 |
|---|---|
| Flight time | 1h 2m |
| Altitude | 36000 |
| Route | OSUSU4R GIKPU UQ120 PADUD/N0444F380 UQ120 DIBAM UW9 ELB/N0443F370 UW9 EDVAR EDVAR1D |
| Aircraft | A320/M-SDE3FGHIRWY/LB1 |
Departure
| Time | 2026-05-04 20:01 |
|---|---|
| Airport | El Dorado International Airport (SKBO) |
Arrival
| Time | 2026-05-04 21:03 |
|---|---|
| Airport | Simón Bolívar International Airport (SKSM) |
| Time | Latitude | Longitude | Altitude | Speed | Heading |
|---|---|---|---|---|---|
| 2026-05-04 19:34 | 4.69827 | -74.14592 | 8372 ft | 0 kts | 68° |
| 2026-05-04 19:45 | 4.69826 | -74.14594 | 8369 ft | 2 kts | 67° |
| 2026-05-04 19:45 | 4.69817 | -74.14617 | 8372 ft | 4 kts | 63° |
| 2026-05-04 19:45 | 4.69804 | -74.14629 | 8372 ft | 4 kts | 343° |
| 2026-05-04 19:45 | 4.69781 | -74.14616 | 8371 ft | 4 kts | 319° |
| 2026-05-04 19:46 | 4.69768 | -74.14603 | 8373 ft | 3 kts | 307° |
| 2026-05-04 19:46 | 4.69784 | -74.14625 | 8373 ft | 4 kts | 307° |
| 2026-05-04 19:46 | 4.69791 | -74.14634 | 8373 ft | 0 kts | 307° |
| 2026-05-04 19:50 | 4.69810 | -74.14659 | 8373 ft | 9 kts | 307° |
| 2026-05-04 19:50 | 4.69845 | -74.14705 | 8373 ft | 7 kts | 307° |
| 2026-05-04 19:51 | 4.69879 | -74.14752 | 8372 ft | 12 kts | 305° |
| 2026-05-04 19:51 | 4.69946 | -74.14777 | 8372 ft | 10 kts | 26° |
| 2026-05-04 19:51 | 4.70016 | -74.14723 | 8373 ft | 17 kts | 37° |
| 2026-05-04 19:51 | 4.70117 | -74.14645 | 8373 ft | 19 kts | 38° |
| 2026-05-04 19:52 | 4.70223 | -74.14567 | 8373 ft | 19 kts | 36° |
| 2026-05-04 19:52 | 4.70328 | -74.14488 | 8371 ft | 19 kts | 37° |
| 2026-05-04 19:52 | 4.70434 | -74.14407 | 8372 ft | 18 kts | 37° |
| 2026-05-04 19:52 | 4.70514 | -74.14451 | 8373 ft | 14 kts | 306° |
| 2026-05-04 19:53 | 4.70565 | -74.14522 | 8373 ft | 11 kts | 306° |
| 2026-05-04 19:53 | 4.70612 | -74.14583 | 8373 ft | 13 kts | 308° |
| 2026-05-04 19:53 | 4.70677 | -74.14666 | 8371 ft | 16 kts | 308° |
| 2026-05-04 19:53 | 4.70746 | -74.14753 | 8370 ft | 15 kts | 308° |
| 2026-05-04 19:54 | 4.70902 | -74.14960 | 8373 ft | 5 kts | 306° |
| 2026-05-04 19:54 | 4.70970 | -74.15049 | 8373 ft | 16 kts | 308° |
| 2026-05-04 19:55 | 4.71033 | -74.15132 | 8374 ft | 14 kts | 307° |
| 2026-05-04 19:55 | 4.71084 | -74.15200 | 8373 ft | 11 kts | 307° |
| 2026-05-04 19:55 | 4.71126 | -74.15255 | 8373 ft | 11 kts | 307° |
| 2026-05-04 19:55 | 4.71196 | -74.15306 | 8370 ft | 12 kts | 352° |
| 2026-05-04 19:56 | 4.71238 | -74.15294 | 8372 ft | 0 kts | 38° |
| 2026-05-04 19:59 | 4.71248 | -74.15286 | 8374 ft | 6 kts | 40° |
| 2026-05-04 19:59 | 4.71299 | -74.15234 | 8372 ft | 14 kts | 47° |
| 2026-05-04 19:59 | 4.71309 | -74.15168 | 8371 ft | 10 kts | 125° |
| 2026-05-04 20:00 | 4.71258 | -74.15101 | 8371 ft | 20 kts | 127° |
| 2026-05-04 20:00 | 4.71026 | -74.14792 | 8371 ft | 90 kts | 127° |
| 2026-05-04 20:00 | 4.70522 | -74.14121 | 8371 ft | 147 kts | 127° |
| 2026-05-04 20:00 | 4.69820 | -74.13171 | 8465 ft | 183 kts | 126° |
| 2026-05-04 20:01 | 4.69089 | -74.12172 | 9425 ft | 178 kts | 125° |
| 2026-05-04 20:01 | 4.68725 | -74.10981 | 9753 ft | 192 kts | 82° |
| 2026-05-04 20:01 | 4.69351 | -74.09739 | 9932 ft | 215 kts | 40° |
| 2026-05-04 20:01 | 4.70762 | -74.09043 | 10120 ft | 240 kts | 20° |
| 2026-05-04 20:02 | 4.72382 | -74.08500 | 10644 ft | 247 kts | 19° |
| 2026-05-04 20:02 | 4.74024 | -74.07977 | 11301 ft | 248 kts | 19° |
| 2026-05-04 20:02 | 4.75684 | -74.07451 | 11910 ft | 250 kts | 20° |
| 2026-05-04 20:02 | 4.77346 | -74.06918 | 12608 ft | 251 kts | 21° |
| 2026-05-04 20:03 | 4.79019 | -74.06372 | 13305 ft | 256 kts | 21° |
| 2026-05-04 20:03 | 4.80786 | -74.05780 | 13305 ft | 279 kts | 21° |
| 2026-05-04 20:03 | 4.82708 | -74.05128 | 13500 ft | 303 kts | 21° |
| 2026-05-04 20:03 | 4.84779 | -74.04425 | 13664 ft | 326 kts | 21° |
| 2026-05-04 20:04 | 4.87003 | -74.03670 | 13892 ft | 346 kts | 21° |
| 2026-05-04 20:04 | 4.89312 | -74.02889 | 14386 ft | 353 kts | 21° |
| 2026-05-04 20:04 | 4.91652 | -74.02098 | 14962 ft | 357 kts | 21° |
| 2026-05-04 20:04 | 4.94019 | -74.01299 | 15525 ft | 361 kts | 21° |
| 2026-05-04 20:05 | 4.96406 | -74.00494 | 15727 ft | 362 kts | 21° |
| 2026-05-04 20:05 | 4.98780 | -73.99693 | 15767 ft | 359 kts | 21° |
| 2026-05-04 20:05 | 5.01150 | -73.98894 | 15772 ft | 359 kts | 21° |
| 2026-05-04 20:05 | 5.03537 | -73.98151 | 15772 ft | 359 kts | 19° |
| 2026-05-04 20:06 | 5.05955 | -73.97507 | 15775 ft | 360 kts | 17° |
| 2026-05-04 20:06 | 5.08385 | -73.96921 | 15775 ft | 360 kts | 16° |
| 2026-05-04 20:06 | 5.10822 | -73.96355 | 15775 ft | 360 kts | 16° |
| 2026-05-04 20:06 | 5.13264 | -73.95787 | 15752 ft | 359 kts | 17° |
| 2026-05-04 20:07 | 5.15686 | -73.95214 | 15757 ft | 357 kts | 17° |
| 2026-05-04 20:07 | 5.18099 | -73.94629 | 15757 ft | 356 kts | 17° |
| 2026-05-04 20:07 | 5.20505 | -73.94033 | 15756 ft | 357 kts | 17° |
| 2026-05-04 20:07 | 5.22925 | -73.93426 | 16075 ft | 360 kts | 18° |
| 2026-05-04 20:08 | 5.25361 | -73.92811 | 16707 ft | 362 kts | 18° |
| 2026-05-04 20:08 | 5.27817 | -73.92191 | 17282 ft | 366 kts | 18° |
| 2026-05-04 20:08 | 5.30300 | -73.91566 | 17878 ft | 370 kts | 17° |
| 2026-05-04 20:08 | 5.32845 | -73.90929 | 18437 ft | 374 kts | 17° |
| 2026-05-04 20:09 | 5.35346 | -73.90308 | 18920 ft | 377 kts | 17° |
| 2026-05-04 20:09 | 5.37935 | -73.89667 | 19403 ft | 379 kts | 17° |
| 2026-05-04 20:09 | 5.40507 | -73.89030 | 19868 ft | 382 kts | 17° |
| 2026-05-04 20:09 | 5.43093 | -73.88388 | 20318 ft | 385 kts | 17° |
| 2026-05-04 20:10 | 5.45706 | -73.87740 | 20795 ft | 388 kts | 17° |
| 2026-05-04 20:10 | 5.48335 | -73.87085 | 21261 ft | 391 kts | 17° |
| 2026-05-04 20:10 | 5.50983 | -73.86424 | 21711 ft | 394 kts | 16° |
| 2026-05-04 20:10 | 5.53657 | -73.85758 | 22136 ft | 398 kts | 15° |
| 2026-05-04 20:11 | 5.56360 | -73.85137 | 22545 ft | 401 kts | 14° |
| 2026-05-04 20:11 | 5.59102 | -73.84562 | 22985 ft | 404 kts | 13° |
| 2026-05-04 20:11 | 5.61873 | -73.84012 | 23439 ft | 407 kts | 13° |
| 2026-05-04 20:11 | 5.64668 | -73.83468 | 23866 ft | 410 kts | 13° |
| 2026-05-04 20:12 | 5.67481 | -73.82917 | 24238 ft | 413 kts | 13° |
| 2026-05-04 20:12 | 5.70309 | -73.82354 | 24589 ft | 415 kts | 13° |
| 2026-05-04 20:12 | 5.73146 | -73.81777 | 24935 ft | 418 kts | 13° |
| 2026-05-04 20:12 | 5.76004 | -73.81186 | 25285 ft | 420 kts | 13° |
| 2026-05-04 20:13 | 5.78876 | -73.80589 | 25640 ft | 423 kts | 13° |
| 2026-05-04 20:13 | 5.81762 | -73.79988 | 25977 ft | 425 kts | 13° |
| 2026-05-04 20:13 | 5.84661 | -73.79385 | 26315 ft | 427 kts | 13° |
| 2026-05-04 20:13 | 5.87585 | -73.78778 | 26640 ft | 430 kts | 13° |
| 2026-05-04 20:14 | 5.90528 | -73.78167 | 26972 ft | 433 kts | 13° |
| 2026-05-04 20:14 | 5.93478 | -73.77557 | 27303 ft | 435 kts | 13° |
| 2026-05-04 20:14 | 5.95442 | -73.77153 | 27521 ft | 436 kts | 13° |
| 2026-05-04 20:14 | 5.98429 | -73.76541 | 27833 ft | 439 kts | 13° |
| 2026-05-04 20:15 | 6.01431 | -73.75928 | 28124 ft | 441 kts | 13° |
| 2026-05-04 20:15 | 6.04451 | -73.75311 | 28425 ft | 444 kts | 13° |
| 2026-05-04 20:15 | 6.07481 | -73.74689 | 28731 ft | 446 kts | 13° |
| 2026-05-04 20:15 | 6.10508 | -73.74063 | 29022 ft | 449 kts | 13° |
| 2026-05-04 20:16 | 6.13568 | -73.73430 | 29318 ft | 451 kts | 13° |
| 2026-05-04 20:16 | 6.16651 | -73.72795 | 29599 ft | 453 kts | 13° |
| 2026-05-04 20:16 | 6.19749 | -73.72156 | 29896 ft | 456 kts | 13° |
| 2026-05-04 20:16 | 6.22865 | -73.71516 | 30152 ft | 458 kts | 13° |
| 2026-05-04 20:17 | 6.25998 | -73.70870 | 30380 ft | 461 kts | 13° |
| 2026-05-04 20:17 | 6.29145 | -73.70221 | 30599 ft | 462 kts | 13° |
| 2026-05-04 20:17 | 6.32299 | -73.69571 | 30858 ft | 464 kts | 13° |
| 2026-05-04 20:17 | 6.35466 | -73.68918 | 31111 ft | 465 kts | 13° |
| 2026-05-04 20:18 | 6.38641 | -73.68262 | 31364 ft | 466 kts | 13° |
| 2026-05-04 20:18 | 6.41824 | -73.67607 | 31656 ft | 467 kts | 13° |
| 2026-05-04 20:18 | 6.45000 | -73.66954 | 32008 ft | 465 kts | 13° |
| 2026-05-04 20:18 | 6.48164 | -73.66300 | 32387 ft | 463 kts | 13° |
| 2026-05-04 20:19 | 6.51315 | -73.65649 | 32755 ft | 462 kts | 12° |
| 2026-05-04 20:19 | 6.54457 | -73.65002 | 33142 ft | 461 kts | 12° |
| 2026-05-04 20:19 | 6.57596 | -73.64355 | 33480 ft | 460 kts | 12° |
| 2026-05-04 20:19 | 6.60726 | -73.63709 | 33833 ft | 459 kts | 12° |
| 2026-05-04 20:20 | 6.63848 | -73.63064 | 34156 ft | 458 kts | 12° |
| 2026-05-04 20:20 | 6.66968 | -73.62418 | 34448 ft | 457 kts | 12° |
| 2026-05-04 20:20 | 6.70078 | -73.61776 | 34733 ft | 456 kts | 12° |
| 2026-05-04 20:20 | 6.73187 | -73.61137 | 34981 ft | 456 kts | 12° |
| 2026-05-04 20:21 | 6.76290 | -73.60499 | 35238 ft | 455 kts | 12° |
| 2026-05-04 20:21 | 6.79395 | -73.59862 | 35498 ft | 455 kts | 12° |
| 2026-05-04 20:21 | 6.85592 | -73.58582 | 35833 ft | 454 kts | 12° |
| 2026-05-04 20:22 | 6.91727 | -73.57313 | 35865 ft | 447 kts | 12° |
| 2026-05-04 20:22 | 6.97838 | -73.56202 | 35861 ft | 446 kts | 4° |
| 2026-05-04 20:23 | 7.04036 | -73.56349 | 35865 ft | 446 kts | 357° |
| 2026-05-04 20:23 | 7.10235 | -73.56646 | 35856 ft | 446 kts | 357° |
| 2026-05-04 20:24 | 7.16434 | -73.56945 | 35863 ft | 446 kts | 357° |
| 2026-05-04 20:24 | 7.22631 | -73.57241 | 35862 ft | 446 kts | 357° |
| 2026-05-04 20:25 | 7.28827 | -73.57536 | 35851 ft | 446 kts | 357° |
| 2026-05-04 20:25 | 7.35072 | -73.57838 | 35846 ft | 446 kts | 357° |
| 2026-05-04 20:26 | 7.41279 | -73.58136 | 35838 ft | 447 kts | 357° |
| 2026-05-04 20:26 | 7.47497 | -73.58431 | 35836 ft | 447 kts | 357° |
| 2026-05-04 20:27 | 7.53705 | -73.58728 | 35841 ft | 447 kts | 357° |
| 2026-05-04 20:27 | 7.59924 | -73.59030 | 35840 ft | 447 kts | 357° |
| 2026-05-04 20:28 | 7.66146 | -73.59325 | 35846 ft | 447 kts | 357° |
| 2026-05-04 20:28 | 7.72354 | -73.59618 | 35850 ft | 447 kts | 357° |
| 2026-05-04 20:29 | 7.78569 | -73.59924 | 35844 ft | 447 kts | 357° |
| 2026-05-04 20:29 | 7.84769 | -73.60226 | 35841 ft | 446 kts | 357° |
| 2026-05-04 20:30 | 7.90974 | -73.60523 | 35849 ft | 446 kts | 357° |
| 2026-05-04 20:30 | 7.97176 | -73.60818 | 35842 ft | 446 kts | 357° |
| 2026-05-04 20:31 | 8.03379 | -73.61109 | 35847 ft | 446 kts | 357° |
| 2026-05-04 20:31 | 8.09588 | -73.61401 | 35840 ft | 447 kts | 357° |
| 2026-05-04 20:32 | 8.15798 | -73.61700 | 35852 ft | 447 kts | 357° |
| 2026-05-04 20:32 | 8.21888 | -73.62830 | 35849 ft | 446 kts | 339° |
| 2026-05-04 20:33 | 8.27636 | -73.65182 | 35844 ft | 446 kts | 337° |
| 2026-05-04 20:33 | 8.33389 | -73.67539 | 35836 ft | 446 kts | 338° |
| 2026-05-04 20:34 | 8.39146 | -73.69885 | 35833 ft | 447 kts | 338° |
| 2026-05-04 20:34 | 8.44907 | -73.72245 | 35831 ft | 447 kts | 338° |
| 2026-05-04 20:35 | 8.50671 | -73.74610 | 35830 ft | 447 kts | 338° |
| 2026-05-04 20:35 | 8.56437 | -73.76974 | 35836 ft | 447 kts | 338° |
| 2026-05-04 20:36 | 8.62199 | -73.79331 | 35822 ft | 447 kts | 338° |
| 2026-05-04 20:36 | 8.67965 | -73.81697 | 35824 ft | 447 kts | 338° |
| 2026-05-04 20:37 | 8.73725 | -73.84067 | 35816 ft | 447 kts | 338° |
| 2026-05-04 20:37 | 8.79486 | -73.86437 | 35826 ft | 446 kts | 337° |
| 2026-05-04 20:38 | 8.85233 | -73.88795 | 35821 ft | 446 kts | 337° |
| 2026-05-04 20:38 | 8.90973 | -73.91148 | 35815 ft | 445 kts | 337° |
| 2026-05-04 20:39 | 8.96707 | -73.93501 | 35822 ft | 445 kts | 337° |
| 2026-05-04 20:39 | 9.02453 | -73.95836 | 35814 ft | 445 kts | 341° |
| 2026-05-04 20:40 | 9.08525 | -73.96901 | 35809 ft | 445 kts | 357° |
| 2026-05-04 20:40 | 9.14711 | -73.97160 | 35809 ft | 445 kts | 356° |
| 2026-05-04 20:41 | 9.20952 | -73.97438 | 35520 ft | 446 kts | 356° |
| 2026-05-04 20:41 | 9.24012 | -73.97575 | 35288 ft | 445 kts | 356° |
| 2026-05-04 20:41 | 9.27142 | -73.97711 | 35004 ft | 442 kts | 357° |
| 2026-05-04 20:42 | 9.30200 | -73.97843 | 34479 ft | 440 kts | 357° |
| 2026-05-04 20:42 | 9.33262 | -73.97976 | 33940 ft | 439 kts | 356° |
| 2026-05-04 20:42 | 9.36311 | -73.98109 | 33363 ft | 437 kts | 357° |
| 2026-05-04 20:42 | 9.39339 | -73.98242 | 32833 ft | 434 kts | 357° |
| 2026-05-04 20:43 | 9.42348 | -73.98375 | 32316 ft | 431 kts | 357° |
| 2026-05-04 20:43 | 9.45335 | -73.98510 | 31799 ft | 428 kts | 357° |
| 2026-05-04 20:43 | 9.48306 | -73.98642 | 31294 ft | 426 kts | 356° |
| 2026-05-04 20:43 | 9.51257 | -73.98770 | 30790 ft | 423 kts | 357° |
| 2026-05-04 20:44 | 9.54189 | -73.98897 | 30303 ft | 420 kts | 357° |
| 2026-05-04 20:44 | 9.57099 | -73.99024 | 29805 ft | 418 kts | 357° |
| 2026-05-04 20:44 | 9.59991 | -73.99149 | 29301 ft | 414 kts | 357° |
| 2026-05-04 20:44 | 9.62845 | -73.99272 | 28845 ft | 408 kts | 357° |
| 2026-05-04 20:45 | 9.65662 | -73.99394 | 28394 ft | 403 kts | 357° |
| 2026-05-04 20:45 | 9.68451 | -73.99516 | 27957 ft | 398 kts | 357° |
| 2026-05-04 20:45 | 9.71104 | -73.99637 | 27532 ft | 394 kts | 357° |
| 2026-05-04 20:45 | 9.73825 | -73.99762 | 27089 ft | 390 kts | 357° |
| 2026-05-04 20:46 | 9.76525 | -73.99882 | 26644 ft | 386 kts | 357° |
| 2026-05-04 20:46 | 9.79196 | -73.99996 | 26189 ft | 383 kts | 357° |
| 2026-05-04 20:46 | 9.81848 | -74.00107 | 25737 ft | 380 kts | 357° |
| 2026-05-04 20:46 | 9.84484 | -74.00218 | 25265 ft | 378 kts | 357° |
| 2026-05-04 20:47 | 9.87102 | -74.00332 | 24805 ft | 376 kts | 357° |
| 2026-05-04 20:47 | 9.89712 | -74.00449 | 24326 ft | 375 kts | 357° |
| 2026-05-04 20:47 | 9.92310 | -74.00565 | 23829 ft | 374 kts | 357° |
| 2026-05-04 20:47 | 9.94913 | -74.00681 | 23348 ft | 373 kts | 357° |
| 2026-05-04 20:48 | 9.97504 | -74.00798 | 22805 ft | 372 kts | 357° |
| 2026-05-04 20:48 | 10.00072 | -74.00915 | 22339 ft | 369 kts | 357° |
| 2026-05-04 20:48 | 10.02636 | -74.01026 | 21868 ft | 366 kts | 358° |
| 2026-05-04 20:48 | 10.05177 | -74.01134 | 21421 ft | 364 kts | 358° |
| 2026-05-04 20:49 | 10.07697 | -74.01242 | 20970 ft | 363 kts | 358° |
| 2026-05-04 20:49 | 10.10202 | -74.01491 | 20518 ft | 361 kts | 349° |
| 2026-05-04 20:49 | 10.12627 | -74.02142 | 20069 ft | 360 kts | 345° |
| 2026-05-04 20:49 | 10.15033 | -74.02824 | 19621 ft | 359 kts | 345° |
| 2026-05-04 20:50 | 10.17434 | -74.03504 | 19168 ft | 358 kts | 345° |
| 2026-05-04 20:50 | 10.19834 | -74.04180 | 18751 ft | 358 kts | 346° |
| 2026-05-04 20:50 | 10.22234 | -74.04857 | 18306 ft | 358 kts | 346° |
| 2026-05-04 20:50 | 10.24611 | -74.05526 | 17994 ft | 353 kts | 346° |
| 2026-05-04 20:51 | 10.26969 | -74.06192 | 17558 ft | 351 kts | 346° |
| 2026-05-04 20:51 | 10.29321 | -74.06856 | 17127 ft | 350 kts | 346° |
| 2026-05-04 20:51 | 10.31666 | -74.07518 | 16697 ft | 349 kts | 346° |
| 2026-05-04 20:51 | 10.33999 | -74.08177 | 16288 ft | 348 kts | 346° |
| 2026-05-04 20:52 | 10.35578 | -74.08625 | 16004 ft | 348 kts | 346° |
| 2026-05-04 20:52 | 10.37904 | -74.09285 | 15606 ft | 347 kts | 347° |
| 2026-05-04 20:52 | 10.40232 | -74.09944 | 15176 ft | 347 kts | 347° |
| 2026-05-04 20:52 | 10.42559 | -74.10603 | 14772 ft | 347 kts | 347° |
| 2026-05-04 20:53 | 10.44884 | -74.11261 | 14360 ft | 347 kts | 347° |
| 2026-05-04 20:53 | 10.47215 | -74.11918 | 13968 ft | 347 kts | 347° |
| 2026-05-04 20:53 | 10.49538 | -74.12572 | 13534 ft | 347 kts | 347° |
| 2026-05-04 20:53 | 10.51866 | -74.13226 | 13108 ft | 346 kts | 347° |
| 2026-05-04 20:54 | 10.54178 | -74.13878 | 12689 ft | 345 kts | 347° |
| 2026-05-04 20:54 | 10.56473 | -74.14525 | 12301 ft | 342 kts | 347° |
| 2026-05-04 20:54 | 10.58751 | -74.15166 | 11955 ft | 338 kts | 347° |
| 2026-05-04 20:54 | 10.61024 | -74.15807 | 11577 ft | 336 kts | 346° |
| 2026-05-04 20:55 | 10.63253 | -74.16437 | 11140 ft | 330 kts | 346° |
| 2026-05-04 20:55 | 10.65451 | -74.17059 | 10563 ft | 323 kts | 346° |
| 2026-05-04 20:55 | 10.67570 | -74.17664 | 10144 ft | 311 kts | 346° |
| 2026-05-04 20:55 | 10.69615 | -74.18247 | 9732 ft | 300 kts | 346° |
| 2026-05-04 20:56 | 10.71597 | -74.18811 | 9302 ft | 290 kts | 346° |
| 2026-05-04 20:56 | 10.73530 | -74.19359 | 8907 ft | 288 kts | 346° |
| 2026-05-04 20:56 | 10.75462 | -74.19903 | 8497 ft | 289 kts | 346° |
| 2026-05-04 20:56 | 10.77400 | -74.20450 | 8085 ft | 289 kts | 346° |
| 2026-05-04 20:57 | 10.79344 | -74.20999 | 7655 ft | 290 kts | 345° |
| 2026-05-04 20:57 | 10.81274 | -74.21542 | 7206 ft | 284 kts | 345° |
| 2026-05-04 20:57 | 10.83143 | -74.22070 | 6773 ft | 274 kts | 346° |
| 2026-05-04 20:57 | 10.84973 | -74.22473 | 6361 ft | 264 kts | 358° |
| 2026-05-04 20:58 | 10.86781 | -74.22519 | 5948 ft | 257 kts | 0° |
| 2026-05-04 20:58 | 10.88549 | -74.22555 | 5541 ft | 251 kts | 359° |
| 2026-05-04 20:58 | 10.90271 | -74.22590 | 5148 ft | 245 kts | 359° |
| 2026-05-04 20:58 | 10.91963 | -74.22627 | 4765 ft | 241 kts | 359° |
| 2026-05-04 20:59 | 10.93602 | -74.22663 | 4368 ft | 232 kts | 359° |
| 2026-05-04 20:59 | 10.95190 | -74.22697 | 3992 ft | 224 kts | 359° |
| 2026-05-04 20:59 | 10.96726 | -74.22730 | 3625 ft | 217 kts | 359° |
| 2026-05-04 20:59 | 10.98204 | -74.22761 | 3297 ft | 206 kts | 359° |
| 2026-05-04 21:00 | 10.99595 | -74.22791 | 2946 ft | 196 kts | 359° |
| 2026-05-04 21:00 | 11.00917 | -74.22821 | 2616 ft | 184 kts | 359° |
| 2026-05-04 21:00 | 11.02146 | -74.22849 | 2325 ft | 166 kts | 359° |
| 2026-05-04 21:00 | 11.03249 | -74.22874 | 2034 ft | 152 kts | 358° |
| 2026-05-04 21:01 | 11.04267 | -74.22895 | 1784 ft | 142 kts | 359° |
| 2026-05-04 21:01 | 11.05250 | -74.22917 | 1551 ft | 140 kts | 358° |
| 2026-05-04 21:01 | 11.06208 | -74.22937 | 1315 ft | 136 kts | 358° |
| 2026-05-04 21:01 | 11.07151 | -74.22957 | 1081 ft | 134 kts | 358° |
| 2026-05-04 21:02 | 11.08091 | -74.22977 | 850 ft | 137 kts | 358° |
| 2026-05-04 21:02 | 11.09044 | -74.22998 | 618 ft | 137 kts | 355° |
| 2026-05-04 21:02 | 11.10007 | -74.23025 | 386 ft | 140 kts | 356° |
| 2026-05-04 21:02 | 11.10980 | -74.23042 | 136 ft | 139 kts | 356° |
| 2026-05-04 21:03 | 11.11914 | -74.23064 | 29 ft | 120 kts | 359° |
| 2026-05-04 21:03 | 11.12442 | -74.23075 | 31 ft | 32 kts | 359° |
| 2026-05-04 21:03 | 11.12629 | -74.23080 | 30 ft | 22 kts | 358° |
| 2026-05-04 21:03 | 11.12719 | -74.23098 | 30 ft | 7 kts | 49° |
| 2026-05-04 21:04 | 11.12686 | -74.23076 | 30 ft | 10 kts | 177° |
| 2026-05-04 21:04 | 11.12576 | -74.23077 | 30 ft | 19 kts | 179° |
| 2026-05-04 21:04 | 11.12438 | -74.23073 | 31 ft | 20 kts | 179° |
| 2026-05-04 21:04 | 11.12289 | -74.23071 | 31 ft | 22 kts | 179° |
| 2026-05-04 21:05 | 11.12150 | -74.23098 | 29 ft | 22 kts | 192° |
| 2026-05-04 21:05 | 11.12006 | -74.23129 | 27 ft | 21 kts | 192° |
| 2026-05-04 21:05 | 11.11887 | -74.23155 | 27 ft | 17 kts | 191° |
| 2026-05-04 21:05 | 11.11800 | -74.23163 | 27 ft | 7 kts | 179° |
| 2026-05-04 21:06 | 11.11777 | -74.23172 | 27 ft | 2 kts | 242° |
| 2026-05-04 21:06 | 11.11778 | -74.23181 | 27 ft | 1 kts | 274° |
| 2026-05-04 21:06 | 11.11778 | -74.23189 | 27 ft | 4 kts | 272° |
| 2026-05-04 21:06 | 11.11778 | -74.23203 | 26 ft | 1 kts | 269° |
| 2026-05-04 21:07 | 11.11778 | -74.23210 | 26 ft | 1 kts | 269° |
| 2026-05-04 21:07 | 11.11778 | -74.23216 | 26 ft | 0 kts | 269° |